Hlavní strana
METAR-TAF:

METAR-TAF

Letiště :

Edmonton, Alberta, Kanada

zeměpisná šířka: 53-18N, zeměpisná délka: 113-35W, výška: 715 m

Aktuální stav počasí

Zpráva byla vytvořena před 11 minutami, v 19:00 UTC
Západní vítr 5 kt
Teplota 11°C
Vlhkost vzduchu 32%
Tlak 1028 hPa
Viditelnost: 24.1 km
Skoro jasno ve výšce 6000 ft
Polojasno ve výšce 25000 ft

METAR: CYEG 231900Z 26005KT 15SM FEW060 SCT250 11/M05 A3036 RMK CU1CI3 CU TR SLP308

Čas: 13:11 (19:11 UTC)

Předpověď počasí

Zpráva byla vytvořena před 1 hodinou a 33 minutami, v 17:38 UTC
Předpověď platná od 23 v 18 UTC do 24 v 18 UTC
Západní vítr 8 kt
Viditelnost: 10 km
Skoro jasno ve výšce 5000 ft
Polojasno ve výšce 25000 ft
Změna
od 24 v 00 UTC do 24 v 02 UTC
Jihozápadní vítr 6 kt
Změna
od 24 v 06 UTC do 24 v 08 UTC
Jihovýchodní vítr 6 kt

TAF: CYEG 231738Z 2318/2418 26008KT P6SM FEW050 SCT250 BECMG 2400/2402 23006KT BECMG 2406/2408 14006KT RMK NXT FCST BY 232100Z

Stav a předpovědi počasí z více než 4 000 letišť (zprávy METAR a TAF).

Červené a žluté tečky na mapě představují dostupné meteorologické stanice.

Když kurzor umístíte na tečku, zobrazí se název stanice.

Pak kliknutím zobrazíte stav a předpověď počasí.

Chcete-li změnit mapu, kliknutím na zelené tlačítko se znaménkem +mapu přiblížíte, kliknutím na zelené tlačítko se znaménkem – mapu oddálíte a kliknutím na zelené šipky přejdete na sousední mapy.


METAR-TAF: